DEKT2: Red River, Dekalb, TX

Data processed at Thu Jan 04 2018 23:29


All information presented herein is the property of the government of the United States of America and may be revised or deleted at any time without prior notice.
Dissemination of this information without the expressed written consent of the Public Affairs Office, Tulsa District U.S. Army Corps of Engineers is strictly prohibited.
These data are gathered electronically and, as presented, have not undergone any form of quality control. These data are not guaranteed to be valid or correct.
Go to home page.
Go to station list.

Upstream stations:

Downstream station:
Previous Day
Next Day
Current Day
    
SHEF ID:       DEKT2     Red River near De Kalb, TX
STATION TYPE:  

               PRECIP     STAGE  STAGE(2)  RIV-FLOW  BAT-LOAD
                   in        ft        ft       cfs      volt
              Ccp-Rev   Ccp-Rev   Ccp-Rev   Ccp-Rev   Ccp-Rev
(US/Central)
01/02 00:00      0.00     11.10     17.19      5315     12.65
01/02 01:00      0.00     11.13     17.18      5375     12.65
01/02 02:00      0.00     11.16     17.20      5436     12.65
01/02 03:00      0.00     11.15     17.18      5416     12.65
01/02 04:00      0.00     11.13     17.20      5375     12.65
01/02 05:00      0.00     11.09     17.18      5294     12.57
01/02 06:00      0.00     11.10     17.18      5315     12.57
01/02 07:00      0.00     11.10     17.19      5315     12.57
01/02 08:00      0.00     11.09     17.18      5294     12.57
01/02 09:00      0.00     11.08     17.21      5274     12.89
01/02 10:00      0.00     11.10     17.20      5315     13.60
01/02 11:00      0.00     11.10     17.21      5315     13.92
01/02 12:00      0.00     11.10     17.21      5315     13.68
01/02 13:00      0.00     11.14     17.22      5395     13.60
01/02 14:00      0.00     11.14     17.21      5395     13.53
01/02 15:00      0.00     11.15     17.21      5416     13.44
01/02 16:00      0.00     11.14     17.23      5395     13.44
01/02 17:00      0.00     11.13     17.20      5375     13.29
01/02 18:00      0.00     11.12     17.22      5355     12.97
01/02 19:00      0.00     11.11     17.20      5335     12.81
01/02 20:00      0.00     11.09     17.21      5294     12.73
01/02 21:00      0.00     11.07     17.21      5254     12.73
01/02 22:00      0.00     11.05     17.22      5214     12.65
01/02 23:00      0.00     11.03     17.19      5174     12.65